Anchorage/Merrill Field, Alaska
Current Conditions -  °F | °C
As of 9:27 AM on Sunday 21 Dec 2014 (Local Time) from PAMR Reporting Station
Light Snow Light Snow  
Wind Chill: -4°   Ceiling: 5500
Heat Index: -4°   Visibility: 5mi
Dew Point: -6°   Wind: 0mph
Humidity: 85%   Direction: NA
Pressure: 29.18"   Gusts: NA
Location:  61.21°N, 149.85°W
Report Text: PAMR 211827Z 00000KT 5SM -SN BR BKN055 OVC080 M04/M06 A2918 RMK AO2 P0000 T10391061
Loading
Personal Weather Stations






























Interactive Weather Map New forecast layout! Learn more

10-Day Weather Forecast

Advertisements
Track Severe Weather on mobile